Juan Santamaria International Airport
MROC : now visible

Airfield :











YOU CAN JOIN US ON...

 
LOGIN :

Register | Disclaimer

   EN    FR    IT 

 









Legend :    VFR   Marginal VFR   IFR   Intensive IFR   Very Intensive IFR
Visi :
Ceiling :
>= 8 km
>= 3000ft
5 to 8 km
1000 to 3000 ft
1500m to 5 km
500 to 1000 ft
800 to 1500m
200 to 500 ft
< 800m
< 200 ft
Symbols :   Thunderstorms  Fog  Heavy snow  Heavy precipitations  Wind > 20 kt







- Airport Elevation : 3021 ft
- IATA code : SJO


MROC - Juan Santamaria International

CURRENT METAR :
  • 231500Z 11015G27KT 090V160 CAVOK 25/11 A3010 NOSIG

EXPIRED METARs :
  • 231400Z 11016G29KT CAVOK 22/12 A3010 NOSIG
  • 231300Z 11017G27KT CAVOK 21/11 A3008 NOSIG

TAF MROC
Valid from the 23 at 12:00 until the 24 at 12:00 UTC


231100Z 2312/2412 10015KT 9999 FEW040 TX30/2319Z TN19/2411Z
TEMPO 2312/2412 10017G27KT
MHTG FIR / North America



MET'MAP, your aeronautical weather chart ! - Copyright ORBIFLY December 2007 - Disclaimer

ORBIFLY MET'MAP TEAM :

Programming & Development : Alexandra Zaïnal
Concept & Development : Baudouin d'Aumeries
Co-Development & Prog : Marc-Olivier Méhu
Technical & hardware support : Manuel Goepfert

Contact : metmap@orbifly.com




SOURCES & CREDITS :

   NOAA       Earth
Advisory